sensor_id;sensor_type;location;lat;lon;timestamp;P1;durP1;ratioP1;P2;durP2;ratioP2
79646;SDS011;69119;41.718;21.786;2023-11-21T00:01:39;31.80;;;17.40;;
79646;SDS011;69119;41.718;21.786;2023-11-21T00:04:06;35.83;;;18.10;;
79646;SDS011;69119;41.718;21.786;2023-11-21T00:06:32;30.83;;;17.52;;
79646;SDS011;69119;41.718;21.786;2023-11-21T00:08:59;32.08;;;18.80;;
79646;SDS011;69119;41.718;21.786;2023-11-21T00:11:25;28.95;;;19.10;;
79646;SDS011;69119;41.718;21.786;2023-11-21T00:13:51;28.00;;;16.40;;
79646;SDS011;69119;41.718;21.786;2023-11-21T00:16:17;33.15;;;16.45;;
79646;SDS011;69119;41.718;21.786;2023-11-21T00:18:44;28.45;;;17.27;;
79646;SDS011;69119;41.718;21.786;2023-11-21T00:21:11;28.63;;;17.95;;
79646;SDS011;69119;41.718;21.786;2023-11-21T00:23:37;25.63;;;15.45;;
79646;SDS011;69119;41.718;21.786;2023-11-21T00:26:04;24.85;;;13.43;;
79646;SDS011;69119;41.718;21.786;2023-11-21T00:28:30;28.40;;;15.55;;
79646;SDS011;69119;41.718;21.786;2023-11-21T00:30:56;27.85;;;15.70;;
79646;SDS011;69119;41.718;21.786;2023-11-21T00:33:22;29.50;;;15.73;;
79646;SDS011;69119;41.718;21.786;2023-11-21T00:35:50;33.47;;;18.30;;
79646;SDS011;69119;41.718;21.786;2023-11-21T00:38:16;29.27;;;16.30;;
79646;SDS011;69119;41.718;21.786;2023-11-21T00:40:45;28.42;;;16.05;;
79646;SDS011;69119;41.718;21.786;2023-11-21T00:43:11;25.58;;;17.58;;
79646;SDS011;69119;41.718;21.786;2023-11-21T00:45:37;29.13;;;19.27;;
79646;SDS011;69119;41.718;21.786;2023-11-21T00:48:05;32.25;;;20.00;;
79646;SDS011;69119;41.718;21.786;2023-11-21T00:50:33;27.70;;;15.82;;
79646;SDS011;69119;41.718;21.786;2023-11-21T00:52:59;26.90;;;15.00;;
79646;SDS011;69119;41.718;21.786;2023-11-21T00:55:27;27.50;;;15.70;;
79646;SDS011;69119;41.718;21.786;2023-11-21T00:57:54;24.40;;;14.70;;
79646;SDS011;69119;41.718;21.786;2023-11-21T01:00:21;28.52;;;15.77;;
79646;SDS011;69119;41.718;21.786;2023-11-21T01:02:48;24.35;;;13.90;;
79646;SDS011;69119;41.718;21.786;2023-11-21T01:08:02;23.27;;;13.38;;
79646;SDS011;69119;41.718;21.786;2023-11-21T01:10:28;24.70;;;13.82;;
79646;SDS011;69119;41.718;21.786;2023-11-21T01:12:55;25.20;;;13.95;;
79646;SDS011;69119;41.718;21.786;2023-11-21T01:15:21;21.00;;;13.85;;
79646;SDS011;69119;41.718;21.786;2023-11-21T01:17:47;26.23;;;13.25;;
79646;SDS011;69119;41.718;21.786;2023-11-21T01:20:13;24.02;;;13.00;;
79646;SDS011;69119;41.718;21.786;2023-11-21T01:22:39;25.40;;;13.73;;
79646;SDS011;69119;41.718;21.786;2023-11-21T01:25:05;27.30;;;16.58;;
79646;SDS011;69119;41.718;21.786;2023-11-21T01:29:59;27.58;;;17.35;;
79646;SDS011;69119;41.718;21.786;2023-11-21T01:32:25;28.20;;;16.52;;
79646;SDS011;69119;41.718;21.786;2023-11-21T01:34:51;25.17;;;15.88;;
79646;SDS011;69119;41.718;21.786;2023-11-21T01:37:17;25.45;;;16.08;;
79646;SDS011;69119;41.718;21.786;2023-11-21T01:39:43;27.25;;;16.35;;
79646;SDS011;69119;41.718;21.786;2023-11-21T01:42:10;26.33;;;14.57;;
79646;SDS011;69119;41.718;21.786;2023-11-21T01:44:38;31.20;;;17.13;;
79646;SDS011;69119;41.718;21.786;2023-11-21T01:47:05;26.27;;;16.88;;
79646;SDS011;69119;41.718;21.786;2023-11-21T01:49:35;28.13;;;16.75;;
79646;SDS011;69119;41.718;21.786;2023-11-21T01:52:01;26.15;;;17.13;;
79646;SDS011;69119;41.718;21.786;2023-11-21T01:54:27;31.45;;;18.63;;
79646;SDS011;69119;41.718;21.786;2023-11-21T01:56:57;29.33;;;18.38;;
79646;SDS011;69119;41.718;21.786;2023-11-21T01:59:28;30.17;;;19.23;;
79646;SDS011;69119;41.718;21.786;2023-11-21T02:01:56;26.88;;;18.15;;
79646;SDS011;69119;41.718;21.786;2023-11-21T02:04:22;31.55;;;17.13;;
79646;SDS011;69119;41.718;21.786;2023-11-21T02:06:48;29.42;;;16.92;;
79646;SDS011;69119;41.718;21.786;2023-11-21T02:09:16;28.15;;;17.33;;
79646;SDS011;69119;41.718;21.786;2023-11-21T02:11:43;25.10;;;16.17;;
79646;SDS011;69119;41.718;21.786;2023-11-21T02:14:09;29.73;;;17.33;;
79646;SDS011;69119;41.718;21.786;2023-11-21T02:16:36;30.13;;;18.05;;
79646;SDS011;69119;41.718;21.786;2023-11-21T02:19:03;27.92;;;15.35;;
79646;SDS011;69119;41.718;21.786;2023-11-21T02:21:31;27.55;;;17.95;;
79646;SDS011;69119;41.718;21.786;2023-11-21T02:23:57;28.83;;;17.95;;
79646;SDS011;69119;41.718;21.786;2023-11-21T02:26:23;28.33;;;18.05;;
79646;SDS011;69119;41.718;21.786;2023-11-21T02:28:51;29.60;;;17.85;;
79646;SDS011;69119;41.718;21.786;2023-11-21T02:31:18;27.02;;;17.65;;
79646;SDS011;69119;41.718;21.786;2023-11-21T02:33:44;25.88;;;15.27;;
79646;SDS011;69119;41.718;21.786;2023-11-21T02:36:10;27.73;;;15.93;;
79646;SDS011;69119;41.718;21.786;2023-11-21T02:38:36;30.92;;;16.85;;
79646;SDS011;69119;41.718;21.786;2023-11-21T02:41:02;27.00;;;16.58;;
79646;SDS011;69119;41.718;21.786;2023-11-21T02:43:29;28.80;;;15.73;;
79646;SDS011;69119;41.718;21.786;2023-11-21T02:45:55;24.23;;;14.05;;
79646;SDS011;69119;41.718;21.786;2023-11-21T02:48:21;23.02;;;13.40;;
79646;SDS011;69119;41.718;21.786;2023-11-21T02:50:50;19.52;;;11.75;;
79646;SDS011;69119;41.718;21.786;2023-11-21T02:53:18;22.17;;;14.52;;
79646;SDS011;69119;41.718;21.786;2023-11-21T02:55:44;23.65;;;13.57;;
79646;SDS011;69119;41.718;21.786;2023-11-21T02:58:10;22.98;;;14.40;;
79646;SDS011;69119;41.718;21.786;2023-11-21T03:00:36;22.63;;;13.48;;
79646;SDS011;69119;41.718;21.786;2023-11-21T03:03:02;20.88;;;12.80;;
79646;SDS011;69119;41.718;21.786;2023-11-21T03:05:29;20.63;;;11.43;;
79646;SDS011;69119;41.718;21.786;2023-11-21T03:07:56;20.65;;;12.77;;
79646;SDS011;69119;41.718;21.786;2023-11-21T03:10:22;21.13;;;13.45;;
79646;SDS011;69119;41.718;21.786;2023-11-21T03:12:48;27.33;;;15.88;;
79646;SDS011;69119;41.718;21.786;2023-11-21T03:15:14;28.67;;;17.52;;
79646;SDS011;69119;41.718;21.786;2023-11-21T03:17:40;28.52;;;14.02;;
79646;SDS011;69119;41.718;21.786;2023-11-21T03:20:07;21.95;;;12.90;;
79646;SDS011;69119;41.718;21.786;2023-11-21T03:22:36;19.83;;;12.35;;
79646;SDS011;69119;41.718;21.786;2023-11-21T03:25:03;18.40;;;11.55;;
79646;SDS011;69119;41.718;21.786;2023-11-21T03:27:30;19.67;;;13.30;;
79646;SDS011;69119;41.718;21.786;2023-11-21T03:29:56;18.95;;;11.80;;
79646;SDS011;69119;41.718;21.786;2023-11-21T03:32:22;21.02;;;10.98;;
79646;SDS011;69119;41.718;21.786;2023-11-21T03:34:55;21.00;;;14.38;;
79646;SDS011;69119;41.718;21.786;2023-11-21T03:37:22;20.55;;;11.07;;
79646;SDS011;69119;41.718;21.786;2023-11-21T03:39:49;20.83;;;12.70;;
79646;SDS011;69119;41.718;21.786;2023-11-21T03:42:15;21.77;;;12.32;;
79646;SDS011;69119;41.718;21.786;2023-11-21T03:44:41;19.30;;;11.82;;
79646;SDS011;69119;41.718;21.786;2023-11-21T03:47:08;17.25;;;10.32;;
79646;SDS011;69119;41.718;21.786;2023-11-21T03:49:34;22.50;;;11.32;;
79646;SDS011;69119;41.718;21.786;2023-11-21T03:52:00;23.70;;;12.57;;
79646;SDS011;69119;41.718;21.786;2023-11-21T03:54:26;20.33;;;12.10;;
79646;SDS011;69119;41.718;21.786;2023-11-21T03:56:52;20.75;;;13.38;;
79646;SDS011;69119;41.718;21.786;2023-11-21T03:59:18;23.48;;;13.57;;
79646;SDS011;69119;41.718;21.786;2023-11-21T04:01:44;25.02;;;14.38;;
79646;SDS011;69119;41.718;21.786;2023-11-21T04:04:10;26.65;;;15.15;;
79646;SDS011;69119;41.718;21.786;2023-11-21T04:06:36;27.35;;;15.27;;
79646;SDS011;69119;41.718;21.786;2023-11-21T04:09:03;26.63;;;15.13;;
79646;SDS011;69119;41.718;21.786;2023-11-21T04:11:29;27.90;;;16.90;;
79646;SDS011;69119;41.718;21.786;2023-11-21T04:13:55;18.92;;;9.98;;
79646;SDS011;69119;41.718;21.786;2023-11-21T04:16:21;21.00;;;11.75;;
79646;SDS011;69119;41.718;21.786;2023-11-21T04:18:47;19.95;;;13.45;;
79646;SDS011;69119;41.718;21.786;2023-11-21T04:21:14;20.13;;;13.05;;
79646;SDS011;69119;41.718;21.786;2023-11-21T04:23:40;20.55;;;12.80;;
79646;SDS011;69119;41.718;21.786;2023-11-21T04:26:06;21.23;;;13.05;;
79646;SDS011;69119;41.718;21.786;2023-11-21T04:28:32;20.20;;;13.50;;
79646;SDS011;69119;41.718;21.786;2023-11-21T04:30:58;21.58;;;13.43;;
79646;SDS011;69119;41.718;21.786;2023-11-21T04:33:24;21.55;;;13.65;;
79646;SDS011;69119;41.718;21.786;2023-11-21T04:35:50;20.90;;;11.70;;
79646;SDS011;69119;41.718;21.786;2023-11-21T04:38:16;21.65;;;12.57;;
79646;SDS011;69119;41.718;21.786;2023-11-21T04:40:44;22.55;;;13.98;;
79646;SDS011;69119;41.718;21.786;2023-11-21T04:43:10;25.70;;;12.82;;
79646;SDS011;69119;41.718;21.786;2023-11-21T04:45:36;24.33;;;12.57;;
79646;SDS011;69119;41.718;21.786;2023-11-21T04:48:03;20.15;;;12.27;;
79646;SDS011;69119;41.718;21.786;2023-11-21T04:52:56;21.35;;;13.48;;
79646;SDS011;69119;41.718;21.786;2023-11-21T04:55:22;22.77;;;12.15;;
79646;SDS011;69119;41.718;21.786;2023-11-21T04:57:48;21.42;;;13.50;;
79646;SDS011;69119;41.718;21.786;2023-11-21T05:00:14;24.65;;;14.27;;
79646;SDS011;69119;41.718;21.786;2023-11-21T05:02:41;21.75;;;12.60;;
79646;SDS011;69119;41.718;21.786;2023-11-21T05:05:07;24.27;;;13.63;;
79646;SDS011;69119;41.718;21.786;2023-11-21T05:07:35;22.85;;;12.73;;
79646;SDS011;69119;41.718;21.786;2023-11-21T05:10:03;22.73;;;14.00;;
79646;SDS011;69119;41.718;21.786;2023-11-21T05:12:31;21.55;;;14.57;;
79646;SDS011;69119;41.718;21.786;2023-11-21T05:15:03;28.13;;;16.88;;
79646;SDS011;69119;41.718;21.786;2023-11-21T05:17:33;22.17;;;13.65;;
79646;SDS011;69119;41.718;21.786;2023-11-21T05:20:02;24.17;;;16.00;;
79646;SDS011;69119;41.718;21.786;2023-11-21T05:22:29;25.67;;;17.38;;
79646;SDS011;69119;41.718;21.786;2023-11-21T05:24:56;24.00;;;14.05;;
79646;SDS011;69119;41.718;21.786;2023-11-21T05:27:24;24.10;;;14.48;;
79646;SDS011;69119;41.718;21.786;2023-11-21T05:29:50;24.83;;;14.25;;
79646;SDS011;69119;41.718;21.786;2023-11-21T05:32:16;20.83;;;14.40;;
79646;SDS011;69119;41.718;21.786;2023-11-21T05:34:42;25.63;;;15.93;;
79646;SDS011;69119;41.718;21.786;2023-11-21T05:37:08;22.25;;;14.38;;
79646;SDS011;69119;41.718;21.786;2023-11-21T05:39:34;22.10;;;14.02;;
79646;SDS011;69119;41.718;21.786;2023-11-21T05:42:01;22.10;;;14.38;;
79646;SDS011;69119;41.718;21.786;2023-11-21T05:46:53;22.15;;;13.40;;
79646;SDS011;69119;41.718;21.786;2023-11-21T05:49:20;24.73;;;15.30;;
79646;SDS011;69119;41.718;21.786;2023-11-21T05:51:47;22.45;;;13.90;;
79646;SDS011;69119;41.718;21.786;2023-11-21T05:54:13;24.88;;;16.33;;
79646;SDS011;69119;41.718;21.786;2023-11-21T05:56:39;25.48;;;13.10;;
79646;SDS011;69119;41.718;21.786;2023-11-21T05:59:05;25.13;;;15.07;;
79646;SDS011;69119;41.718;21.786;2023-11-21T06:01:31;24.08;;;14.32;;
79646;SDS011;69119;41.718;21.786;2023-11-21T06:03:58;33.58;;;18.23;;
79646;SDS011;69119;41.718;21.786;2023-11-21T06:06:24;36.05;;;20.33;;
79646;SDS011;69119;41.718;21.786;2023-11-21T06:08:51;50.47;;;29.17;;
79646;SDS011;69119;41.718;21.786;2023-11-21T06:11:17;25.70;;;15.85;;
79646;SDS011;69119;41.718;21.786;2023-11-21T06:13:44;28.40;;;16.10;;
79646;SDS011;69119;41.718;21.786;2023-11-21T06:16:10;23.88;;;15.90;;
79646;SDS011;69119;41.718;21.786;2023-11-21T06:18:38;28.35;;;19.23;;
79646;SDS011;69119;41.718;21.786;2023-11-21T06:21:05;23.33;;;14.48;;
79646;SDS011;69119;41.718;21.786;2023-11-21T06:23:31;24.65;;;12.32;;
79646;SDS011;69119;41.718;21.786;2023-11-21T06:25:57;28.42;;;19.30;;
79646;SDS011;69119;41.718;21.786;2023-11-21T06:28:23;30.95;;;16.27;;
79646;SDS011;69119;41.718;21.786;2023-11-21T06:30:49;25.40;;;15.73;;
79646;SDS011;69119;41.718;21.786;2023-11-21T06:33:15;24.92;;;15.00;;
79646;SDS011;69119;41.718;21.786;2023-11-21T06:35:42;25.92;;;15.82;;
79646;SDS011;69119;41.718;21.786;2023-11-21T06:38:08;25.65;;;15.98;;
79646;SDS011;69119;41.718;21.786;2023-11-21T06:40:34;22.35;;;14.32;;
79646;SDS011;69119;41.718;21.786;2023-11-21T06:43:00;24.10;;;13.35;;
79646;SDS011;69119;41.718;21.786;2023-11-21T06:45:26;24.73;;;15.32;;
79646;SDS011;69119;41.718;21.786;2023-11-21T06:47:52;30.40;;;19.50;;
79646;SDS011;69119;41.718;21.786;2023-11-21T06:50:18;24.67;;;16.27;;
79646;SDS011;69119;41.718;21.786;2023-11-21T06:52:46;26.33;;;17.13;;
79646;SDS011;69119;41.718;21.786;2023-11-21T06:55:12;33.53;;;21.20;;
79646;SDS011;69119;41.718;21.786;2023-11-21T06:57:38;67.95;;;26.95;;
79646;SDS011;69119;41.718;21.786;2023-11-21T07:00:04;65.75;;;27.50;;
79646;SDS011;69119;41.718;21.786;2023-11-21T07:02:33;59.78;;;26.55;;
79646;SDS011;69119;41.718;21.786;2023-11-21T07:05:00;34.28;;;21.58;;
79646;SDS011;69119;41.718;21.786;2023-11-21T07:07:26;26.63;;;16.88;;
79646;SDS011;69119;41.718;21.786;2023-11-21T07:09:52;26.55;;;15.82;;
79646;SDS011;69119;41.718;21.786;2023-11-21T07:12:19;22.50;;;13.70;;
79646;SDS011;69119;41.718;21.786;2023-11-21T07:14:48;26.77;;;16.80;;
79646;SDS011;69119;41.718;21.786;2023-11-21T07:17:14;22.27;;;10.82;;
79646;SDS011;69119;41.718;21.786;2023-11-21T07:19:42;34.75;;;19.65;;
79646;SDS011;69119;41.718;21.786;2023-11-21T07:22:08;28.13;;;15.75;;
79646;SDS011;69119;41.718;21.786;2023-11-21T07:24:34;28.77;;;16.52;;
79646;SDS011;69119;41.718;21.786;2023-11-21T07:27:01;22.10;;;15.52;;
79646;SDS011;69119;41.718;21.786;2023-11-21T07:29:29;29.10;;;17.40;;
79646;SDS011;69119;41.718;21.786;2023-11-21T07:31:55;37.17;;;22.60;;
79646;SDS011;69119;41.718;21.786;2023-11-21T07:34:21;34.33;;;20.60;;
79646;SDS011;69119;41.718;21.786;2023-11-21T07:36:47;39.13;;;22.77;;
79646;SDS011;69119;41.718;21.786;2023-11-21T07:39:14;31.33;;;22.20;;
79646;SDS011;69119;41.718;21.786;2023-11-21T07:41:41;28.10;;;17.60;;
79646;SDS011;69119;41.718;21.786;2023-11-21T07:44:16;30.52;;;18.80;;
79646;SDS011;69119;41.718;21.786;2023-11-21T07:46:43;29.42;;;17.45;;
79646;SDS011;69119;41.718;21.786;2023-11-21T07:49:09;29.88;;;18.23;;
79646;SDS011;69119;41.718;21.786;2023-11-21T07:51:35;22.00;;;13.32;;
79646;SDS011;69119;41.718;21.786;2023-11-21T07:54:01;18.40;;;11.27;;
79646;SDS011;69119;41.718;21.786;2023-11-21T07:56:28;14.77;;;8.95;;
79646;SDS011;69119;41.718;21.786;2023-11-21T07:58:54;17.00;;;11.75;;
79646;SDS011;69119;41.718;21.786;2023-11-21T08:01:20;20.77;;;13.00;;
79646;SDS011;69119;41.718;21.786;2023-11-21T08:03:46;19.27;;;10.95;;
79646;SDS011;69119;41.718;21.786;2023-11-21T08:06:16;20.90;;;13.90;;
79646;SDS011;69119;41.718;21.786;2023-11-21T08:08:42;20.63;;;11.32;;
79646;SDS011;69119;41.718;21.786;2023-11-21T08:11:08;23.10;;;13.38;;
79646;SDS011;69119;41.718;21.786;2023-11-21T08:13:35;26.48;;;13.10;;
79646;SDS011;69119;41.718;21.786;2023-11-21T08:16:02;23.52;;;13.20;;
79646;SDS011;69119;41.718;21.786;2023-11-21T08:18:30;24.00;;;14.38;;
79646;SDS011;69119;41.718;21.786;2023-11-21T08:20:56;20.38;;;11.52;;
79646;SDS011;69119;41.718;21.786;2023-11-21T08:23:23;23.88;;;14.45;;
79646;SDS011;69119;41.718;21.786;2023-11-21T08:25:53;15.60;;;7.65;;
79646;SDS011;69119;41.718;21.786;2023-11-21T08:28:20;18.92;;;10.27;;
79646;SDS011;69119;41.718;21.786;2023-11-21T08:30:51;16.38;;;10.70;;
79646;SDS011;69119;41.718;21.786;2023-11-21T08:33:18;18.83;;;10.88;;
79646;SDS011;69119;41.718;21.786;2023-11-21T08:35:44;20.55;;;12.50;;
79646;SDS011;69119;41.718;21.786;2023-11-21T08:38:11;17.55;;;11.20;;
79646;SDS011;69119;41.718;21.786;2023-11-21T08:40:37;19.73;;;12.02;;
79646;SDS011;69119;41.718;21.786;2023-11-21T08:43:03;21.10;;;11.55;;
79646;SDS011;69119;41.718;21.786;2023-11-21T08:45:33;22.20;;;13.95;;
79646;SDS011;69119;41.718;21.786;2023-11-21T08:48:02;22.02;;;11.80;;
79646;SDS011;69119;41.718;21.786;2023-11-21T08:50:29;19.05;;;12.73;;
79646;SDS011;69119;41.718;21.786;2023-11-21T08:52:55;19.15;;;11.63;;
79646;SDS011;69119;41.718;21.786;2023-11-21T08:55:21;19.92;;;11.00;;
79646;SDS011;69119;41.718;21.786;2023-11-21T08:57:48;18.23;;;10.80;;
79646;SDS011;69119;41.718;21.786;2023-11-21T09:00:14;18.95;;;11.93;;
79646;SDS011;69119;41.718;21.786;2023-11-21T09:02:42;19.85;;;11.95;;
79646;SDS011;69119;41.718;21.786;2023-11-21T09:05:08;16.77;;;10.80;;
79646;SDS011;69119;41.718;21.786;2023-11-21T09:07:35;21.77;;;11.88;;
79646;SDS011;69119;41.718;21.786;2023-11-21T09:10:01;19.90;;;12.88;;
79646;SDS011;69119;41.718;21.786;2023-11-21T09:12:28;19.67;;;11.07;;
79646;SDS011;69119;41.718;21.786;2023-11-21T09:14:54;18.45;;;10.55;;
79646;SDS011;69119;41.718;21.786;2023-11-21T09:17:20;17.38;;;10.23;;
79646;SDS011;69119;41.718;21.786;2023-11-21T09:19:46;18.50;;;10.68;;
79646;SDS011;69119;41.718;21.786;2023-11-21T09:22:17;20.00;;;11.20;;
79646;SDS011;69119;41.718;21.786;2023-11-21T09:24:43;22.92;;;12.73;;
79646;SDS011;69119;41.718;21.786;2023-11-21T09:27:09;19.52;;;11.95;;
79646;SDS011;69119;41.718;21.786;2023-11-21T09:29:36;24.67;;;17.13;;
79646;SDS011;69119;41.718;21.786;2023-11-21T09:32:04;31.85;;;17.58;;
79646;SDS011;69119;41.718;21.786;2023-11-21T09:34:32;26.90;;;17.77;;
79646;SDS011;69119;41.718;21.786;2023-11-21T09:36:58;32.55;;;18.25;;
79646;SDS011;69119;41.718;21.786;2023-11-21T09:39:24;41.20;;;24.90;;
79646;SDS011;69119;41.718;21.786;2023-11-21T09:41:57;54.28;;;33.33;;
79646;SDS011;69119;41.718;21.786;2023-11-21T09:47:10;60.83;;;36.83;;
79646;SDS011;69119;41.718;21.786;2023-11-21T09:49:41;48.33;;;28.77;;
79646;SDS011;69119;41.718;21.786;2023-11-21T09:52:08;47.50;;;30.05;;
79646;SDS011;69119;41.718;21.786;2023-11-21T09:54:35;48.08;;;27.23;;
79646;SDS011;69119;41.718;21.786;2023-11-21T09:57:01;43.80;;;26.20;;
79646;SDS011;69119;41.718;21.786;2023-11-21T10:01:54;35.85;;;23.30;;
79646;SDS011;69119;41.718;21.786;2023-11-21T10:04:22;43.67;;;25.52;;
79646;SDS011;69119;41.718;21.786;2023-11-21T10:06:49;52.60;;;29.50;;
79646;SDS011;69119;41.718;21.786;2023-11-21T10:09:16;53.10;;;33.42;;
79646;SDS011;69119;41.718;21.786;2023-11-21T10:11:42;60.08;;;35.17;;
79646;SDS011;69119;41.718;21.786;2023-11-21T10:14:12;57.85;;;34.72;;
79646;SDS011;69119;41.718;21.786;2023-11-21T10:16:39;58.75;;;33.25;;
79646;SDS011;69119;41.718;21.786;2023-11-21T10:19:06;47.35;;;32.88;;
79646;SDS011;69119;41.718;21.786;2023-11-21T10:21:35;51.75;;;29.42;;
79646;SDS011;69119;41.718;21.786;2023-11-21T10:24:02;53.15;;;31.95;;
79646;SDS011;69119;41.718;21.786;2023-11-21T10:26:28;51.85;;;32.78;;
79646;SDS011;69119;41.718;21.786;2023-11-21T10:29:00;55.00;;;33.00;;
79646;SDS011;69119;41.718;21.786;2023-11-21T10:31:26;55.78;;;36.47;;
79646;SDS011;69119;41.718;21.786;2023-11-21T10:33:53;63.95;;;39.05;;
79646;SDS011;69119;41.718;21.786;2023-11-21T10:36:25;55.00;;;36.33;;
79646;SDS011;69119;41.718;21.786;2023-11-21T10:38:52;51.20;;;31.77;;
79646;SDS011;69119;41.718;21.786;2023-11-21T10:41:18;52.88;;;31.77;;
79646;SDS011;69119;41.718;21.786;2023-11-21T10:46:11;41.08;;;24.52;;
79646;SDS011;69119;41.718;21.786;2023-11-21T10:48:37;31.63;;;18.88;;
79646;SDS011;69119;41.718;21.786;2023-11-21T10:53:29;31.90;;;19.58;;
79646;SDS011;69119;41.718;21.786;2023-11-21T10:56:00;37.42;;;22.55;;
79646;SDS011;69119;41.718;21.786;2023-11-21T10:58:27;32.65;;;20.40;;
79646;SDS011;69119;41.718;21.786;2023-11-21T11:00:53;29.27;;;20.00;;
79646;SDS011;69119;41.718;21.786;2023-11-21T11:03:19;31.45;;;19.60;;
79646;SDS011;69119;41.718;21.786;2023-11-21T11:05:48;30.23;;;20.48;;
79646;SDS011;69119;41.718;21.786;2023-11-21T11:08:24;29.50;;;18.40;;
79646;SDS011;69119;41.718;21.786;2023-11-21T11:10:57;35.42;;;21.50;;
79646;SDS011;69119;41.718;21.786;2023-11-21T11:13:23;41.75;;;24.27;;
79646;SDS011;69119;41.718;21.786;2023-11-21T11:15:50;48.22;;;30.25;;
79646;SDS011;69119;41.718;21.786;2023-11-21T11:18:17;46.08;;;28.95;;
79646;SDS011;69119;41.718;21.786;2023-11-21T11:20:43;40.53;;;24.83;;
79646;SDS011;69119;41.718;21.786;2023-11-21T11:31:21;39.13;;;25.17;;
79646;SDS011;69119;41.718;21.786;2023-11-21T11:33:58;36.80;;;23.45;;
79646;SDS011;69119;41.718;21.786;2023-11-21T11:36:34;37.38;;;24.40;;
79646;SDS011;69119;41.718;21.786;2023-11-21T11:39:02;45.08;;;27.45;;
79646;SDS011;69119;41.718;21.786;2023-11-21T11:41:31;59.95;;;38.38;;
79646;SDS011;69119;41.718;21.786;2023-11-21T11:44:00;55.55;;;33.33;;
79646;SDS011;69119;41.718;21.786;2023-11-21T11:46:47;57.35;;;36.00;;
79646;SDS011;69119;41.718;21.786;2023-11-21T11:49:24;48.53;;;30.70;;
79646;SDS011;69119;41.718;21.786;2023-11-21T11:54:37;44.50;;;27.73;;
79646;SDS011;69119;41.718;21.786;2023-11-21T11:57:04;41.58;;;26.02;;
79646;SDS011;69119;41.718;21.786;2023-11-21T11:59:37;40.95;;;25.98;;
79646;SDS011;69119;41.718;21.786;2023-11-21T12:02:21;42.58;;;26.90;;
79646;SDS011;69119;41.718;21.786;2023-11-21T12:04:47;40.13;;;25.67;;
79646;SDS011;69119;41.718;21.786;2023-11-21T12:07:13;38.97;;;24.73;;
79646;SDS011;69119;41.718;21.786;2023-11-21T12:09:40;41.55;;;26.50;;
79646;SDS011;69119;41.718;21.786;2023-11-21T12:12:06;45.05;;;28.55;;
79646;SDS011;69119;41.718;21.786;2023-11-21T12:14:34;45.20;;;29.08;;
79646;SDS011;69119;41.718;21.786;2023-11-21T12:17:02;46.53;;;28.65;;
79646;SDS011;69119;41.718;21.786;2023-11-21T12:19:29;44.95;;;28.33;;
79646;SDS011;69119;41.718;21.786;2023-11-21T12:21:55;39.40;;;24.88;;
79646;SDS011;69119;41.718;21.786;2023-11-21T12:24:22;38.40;;;26.10;;
79646;SDS011;69119;41.718;21.786;2023-11-21T12:26:49;45.35;;;25.77;;
79646;SDS011;69119;41.718;21.786;2023-11-21T12:29:15;37.60;;;26.60;;
79646;SDS011;69119;41.718;21.786;2023-11-21T12:31:41;37.55;;;23.92;;
79646;SDS011;69119;41.718;21.786;2023-11-21T12:34:07;36.53;;;22.80;;
79646;SDS011;69119;41.718;21.786;2023-11-21T12:36:36;34.85;;;25.40;;
79646;SDS011;69119;41.718;21.786;2023-11-21T12:39:02;33.67;;;21.92;;
79646;SDS011;69119;41.718;21.786;2023-11-21T12:41:28;33.53;;;22.08;;
79646;SDS011;69119;41.718;21.786;2023-11-21T12:43:55;33.45;;;22.23;;
79646;SDS011;69119;41.718;21.786;2023-11-21T12:46:22;35.70;;;25.00;;
79646;SDS011;69119;41.718;21.786;2023-11-21T12:48:51;32.60;;;22.27;;
79646;SDS011;69119;41.718;21.786;2023-11-21T12:51:17;30.15;;;18.98;;
79646;SDS011;69119;41.718;21.786;2023-11-21T12:53:43;32.90;;;20.38;;
79646;SDS011;69119;41.718;21.786;2023-11-21T12:56:10;34.80;;;20.75;;
79646;SDS011;69119;41.718;21.786;2023-11-21T13:01:04;31.73;;;19.90;;
79646;SDS011;69119;41.718;21.786;2023-11-21T13:03:30;34.30;;;22.20;;
79646;SDS011;69119;41.718;21.786;2023-11-21T13:05:57;36.50;;;23.13;;
79646;SDS011;69119;41.718;21.786;2023-11-21T13:08:24;37.22;;;25.52;;
79646;SDS011;69119;41.718;21.786;2023-11-21T13:10:51;41.80;;;27.98;;
79646;SDS011;69119;41.718;21.786;2023-11-21T13:13:19;45.15;;;29.88;;
79646;SDS011;69119;41.718;21.786;2023-11-21T13:15:49;37.95;;;24.63;;
79646;SDS011;69119;41.718;21.786;2023-11-21T13:18:15;41.35;;;26.15;;
79646;SDS011;69119;41.718;21.786;2023-11-21T13:23:11;49.33;;;30.40;;
79646;SDS011;69119;41.718;21.786;2023-11-21T13:25:38;55.30;;;33.88;;
79646;SDS011;69119;41.718;21.786;2023-11-21T13:28:06;61.45;;;39.53;;
79646;SDS011;69119;41.718;21.786;2023-11-21T13:30:33;56.85;;;38.03;;
79646;SDS011;69119;41.718;21.786;2023-11-21T13:33:03;53.15;;;34.35;;
79646;SDS011;69119;41.718;21.786;2023-11-21T13:35:36;54.03;;;33.67;;
79646;SDS011;69119;41.718;21.786;2023-11-21T13:38:05;64.32;;;40.85;;
79646;SDS011;69119;41.718;21.786;2023-11-21T13:40:32;58.58;;;35.97;;
79646;SDS011;69119;41.718;21.786;2023-11-21T13:43:01;58.47;;;35.20;;
79646;SDS011;69119;41.718;21.786;2023-11-21T13:45:30;56.88;;;36.95;;
79646;SDS011;69119;41.718;21.786;2023-11-21T13:47:56;65.28;;;44.33;;
79646;SDS011;69119;41.718;21.786;2023-11-21T13:50:25;115.88;;;67.50;;
79646;SDS011;69119;41.718;21.786;2023-11-21T13:52:58;105.50;;;60.85;;
79646;SDS011;69119;41.718;21.786;2023-11-21T13:55:29;88.50;;;50.75;;
79646;SDS011;69119;41.718;21.786;2023-11-21T13:57:55;176.82;;;96.05;;
79646;SDS011;69119;41.718;21.786;2023-11-21T14:00:22;84.70;;;50.78;;
79646;SDS011;69119;41.718;21.786;2023-11-21T14:03:07;86.45;;;48.10;;
79646;SDS011;69119;41.718;21.786;2023-11-21T14:05:42;76.85;;;47.53;;
79646;SDS011;69119;41.718;21.786;2023-11-21T14:08:10;97.57;;;58.05;;
79646;SDS011;69119;41.718;21.786;2023-11-21T14:10:41;100.18;;;59.95;;
79646;SDS011;69119;41.718;21.786;2023-11-21T14:13:09;107.88;;;65.75;;
79646;SDS011;69119;41.718;21.786;2023-11-21T14:18:07;85.20;;;52.13;;
79646;SDS011;69119;41.718;21.786;2023-11-21T14:20:36;90.22;;;52.97;;
79646;SDS011;69119;41.718;21.786;2023-11-21T14:23:03;99.75;;;61.33;;
79646;SDS011;69119;41.718;21.786;2023-11-21T14:25:32;141.98;;;76.78;;
79646;SDS011;69119;41.718;21.786;2023-11-21T14:30:25;135.15;;;76.93;;
79646;SDS011;69119;41.718;21.786;2023-11-21T14:32:52;124.20;;;73.65;;
79646;SDS011;69119;41.718;21.786;2023-11-21T14:35:18;121.68;;;77.47;;
79646;SDS011;69119;41.718;21.786;2023-11-21T14:37:45;112.25;;;60.60;;
79646;SDS011;69119;41.718;21.786;2023-11-21T14:40:11;110.38;;;63.55;;
79646;SDS011;69119;41.718;21.786;2023-11-21T14:42:41;121.05;;;65.75;;
79646;SDS011;69119;41.718;21.786;2023-11-21T14:47:33;121.35;;;66.47;;
79646;SDS011;69119;41.718;21.786;2023-11-21T14:50:00;119.85;;;69.97;;
79646;SDS011;69119;41.718;21.786;2023-11-21T14:52:46;122.43;;;73.45;;